Strasburg, Missouri
Current Conditions -  °F | °C
As of 7:13 AM on Thursday 27 Nov 2014 (Local Time) from KLXT Reporting Station
Overcast Overcast  
Wind Chill: 17°   Ceiling: 1500
Heat Index: 26°   Visibility: 10mi
Dew Point: 20°   Wind: 9mph
Humidity: 78%   Direction: 340°NNW
Pressure: 30.5"   Gusts: NA
Location:  38.76°N, 94.17°W
Report Text: KLXT 271313Z AUTO 34008KT 10SM OVC015 M03/M07 A3050 RMK AO2 T10331067 TSNO
Loading
Personal Weather Stations






























Interactive Weather Map New forecast layout! Learn more

10-Day Weather Forecast

Advertisements
Track Severe Weather on mobile